sensor_id;sensor_type;location;lat;lon;timestamp;pressure;altitude;pressure_sealevel;temperature;humidity
39729;BME280;25402;42.004;23.088;2023-07-31T00:01:56;96904.22;;;19.92;49.44
39729;BME280;25402;42.004;23.088;2023-07-31T00:04:23;96897.00;;;19.86;48.73
39729;BME280;25402;42.004;23.088;2023-07-31T00:06:50;96873.41;;;19.58;48.71
39729;BME280;25402;42.004;23.088;2023-07-31T00:09:17;96886.00;;;19.81;48.13
39729;BME280;25402;42.004;23.088;2023-07-31T00:11:46;96896.63;;;20.04;47.73
39729;BME280;25402;42.004;23.088;2023-07-31T00:14:13;96893.09;;;20.09;48.39
39729;BME280;25402;42.004;23.088;2023-07-31T00:16:40;96892.84;;;20.16;48.49
39729;BME280;25402;42.004;23.088;2023-07-31T00:19:07;96884.63;;;20.16;48.08
39729;BME280;25402;42.004;23.088;2023-07-31T00:21:34;96880.19;;;20.09;47.77
39729;BME280;25402;42.004;23.088;2023-07-31T00:24:00;96900.56;;;20.19;47.77
39729;BME280;25402;42.004;23.088;2023-07-31T00:26:27;96916.97;;;20.08;45.90
39729;BME280;25402;42.004;23.088;2023-07-31T00:28:56;96920.50;;;19.72;45.33
39729;BME280;25402;42.004;23.088;2023-07-31T00:31:22;96930.28;;;19.41;45.82
39729;BME280;25402;42.004;23.088;2023-07-31T00:33:49;96926.78;;;19.46;45.81
39729;BME280;25402;42.004;23.088;2023-07-31T00:36:16;96946.75;;;19.68;45.52
39729;BME280;25402;42.004;23.088;2023-07-31T00:38:44;96956.97;;;19.46;46.30
39729;BME280;25402;42.004;23.088;2023-07-31T00:41:11;96947.16;;;19.28;47.12
39729;BME280;25402;42.004;23.088;2023-07-31T00:43:38;96943.06;;;18.87;48.42
39729;BME280;25402;42.004;23.088;2023-07-31T00:46:06;96949.13;;;19.11;47.66
39729;BME280;25402;42.004;23.088;2023-07-31T00:48:34;96958.94;;;19.06;46.67
39729;BME280;25402;42.004;23.088;2023-07-31T00:51:01;96945.75;;;19.03;46.76
39729;BME280;25402;42.004;23.088;2023-07-31T00:53:28;96938.59;;;19.02;46.90
39729;BME280;25402;42.004;23.088;2023-07-31T00:55:56;96946.63;;;18.87;48.14
39729;BME280;25402;42.004;23.088;2023-07-31T00:58:23;96931.59;;;18.51;49.34
39729;BME280;25402;42.004;23.088;2023-07-31T01:00:50;96938.69;;;18.69;49.65
39729;BME280;25402;42.004;23.088;2023-07-31T01:03:18;96939.53;;;18.69;49.51
39729;BME280;25402;42.004;23.088;2023-07-31T01:05:51;96941.66;;;18.84;49.20
39729;BME280;25402;42.004;23.088;2023-07-31T01:08:27;96954.03;;;18.87;49.46
39729;BME280;25402;42.004;23.088;2023-07-31T01:11:02;96927.25;;;18.72;49.59
39729;BME280;25402;42.004;23.088;2023-07-31T01:13:33;96951.28;;;18.87;49.82
39729;BME280;25402;42.004;23.088;2023-07-31T01:16:00;96955.13;;;18.69;50.35
39729;BME280;25402;42.004;23.088;2023-07-31T01:18:29;96950.88;;;18.78;50.06
39729;BME280;25402;42.004;23.088;2023-07-31T01:21:04;96955.88;;;18.64;50.61
39729;BME280;25402;42.004;23.088;2023-07-31T01:24:00;96947.75;;;18.69;50.55
39729;BME280;25402;42.004;23.088;2023-07-31T01:26:38;96938.25;;;18.55;51.38
39729;BME280;25402;42.004;23.088;2023-07-31T01:29:10;96925.28;;;18.51;51.39
39729;BME280;25402;42.004;23.088;2023-07-31T01:31:42;96947.84;;;18.58;51.65
39729;BME280;25402;42.004;23.088;2023-07-31T01:34:11;96943.50;;;18.62;51.03
39729;BME280;25402;42.004;23.088;2023-07-31T01:36:39;96940.81;;;18.45;51.83
39729;BME280;25402;42.004;23.088;2023-07-31T01:39:06;96941.38;;;18.47;52.15
39729;BME280;25402;42.004;23.088;2023-07-31T01:41:33;96944.63;;;18.44;52.49
39729;BME280;25402;42.004;23.088;2023-07-31T01:44:01;96925.28;;;18.34;53.32
39729;BME280;25402;42.004;23.088;2023-07-31T01:46:28;96931.97;;;18.43;53.43
39729;BME280;25402;42.004;23.088;2023-07-31T01:48:56;96934.41;;;18.39;53.79
39729;BME280;25402;42.004;23.088;2023-07-31T01:51:22;96926.28;;;18.45;53.65
39729;BME280;25402;42.004;23.088;2023-07-31T01:53:48;96928.28;;;18.49;53.57
39729;BME280;25402;42.004;23.088;2023-07-31T01:56:15;96924.97;;;18.47;53.41
39729;BME280;25402;42.004;23.088;2023-07-31T01:58:42;96919.72;;;18.46;53.40
39729;BME280;25402;42.004;23.088;2023-07-31T02:01:11;96917.16;;;18.39;53.59
39729;BME280;25402;42.004;23.088;2023-07-31T02:03:38;96926.38;;;18.50;54.04
39729;BME280;25402;42.004;23.088;2023-07-31T02:06:05;96919.66;;;18.40;54.52
39729;BME280;25402;42.004;23.088;2023-07-31T02:08:32;96917.97;;;18.39;54.74
39729;BME280;25402;42.004;23.088;2023-07-31T02:10:59;96909.03;;;18.44;54.73
39729;BME280;25402;42.004;23.088;2023-07-31T02:13:26;96922.09;;;18.42;54.78
39729;BME280;25402;42.004;23.088;2023-07-31T02:15:53;96921.56;;;18.40;55.01
39729;BME280;25402;42.004;23.088;2023-07-31T02:18:21;96934.41;;;18.39;54.53
39729;BME280;25402;42.004;23.088;2023-07-31T02:20:49;96935.41;;;18.33;54.44
39729;BME280;25402;42.004;23.088;2023-07-31T02:23:16;96922.31;;;18.19;54.19
39729;BME280;25402;42.004;23.088;2023-07-31T02:25:44;96942.16;;;18.26;54.35
39729;BME280;25402;42.004;23.088;2023-07-31T02:28:11;96960.78;;;18.29;54.17
39729;BME280;25402;42.004;23.088;2023-07-31T02:30:38;96932.69;;;18.17;53.72
39729;BME280;25402;42.004;23.088;2023-07-31T02:33:05;96942.06;;;18.21;53.63
39729;BME280;25402;42.004;23.088;2023-07-31T02:35:33;96964.84;;;18.26;53.70
39729;BME280;25402;42.004;23.088;2023-07-31T02:38:00;96978.22;;;18.23;53.57
39729;BME280;25402;42.004;23.088;2023-07-31T02:40:30;96979.69;;;18.14;53.79
39729;BME280;25402;42.004;23.088;2023-07-31T02:42:57;96985.75;;;18.16;53.93
39729;BME280;25402;42.004;23.088;2023-07-31T02:45:24;96989.22;;;18.11;54.40
39729;BME280;25402;42.004;23.088;2023-07-31T02:47:51;96985.19;;;18.14;54.02
39729;BME280;25402;42.004;23.088;2023-07-31T02:50:18;96986.69;;;18.04;52.71
39729;BME280;25402;42.004;23.088;2023-07-31T02:52:46;96988.00;;;18.02;52.31
39729;BME280;25402;42.004;23.088;2023-07-31T02:55:13;96973.25;;;18.03;52.31
39729;BME280;25402;42.004;23.088;2023-07-31T02:57:40;96960.78;;;17.95;51.71
39729;BME280;25402;42.004;23.088;2023-07-31T03:00:08;96975.16;;;18.02;51.53
39729;BME280;25402;42.004;23.088;2023-07-31T03:02:35;96958.81;;;17.91;51.24
39729;BME280;25402;42.004;23.088;2023-07-31T03:05:02;96982.84;;;17.89;51.92
39729;BME280;25402;42.004;23.088;2023-07-31T03:07:29;96976.28;;;17.90;51.77
39729;BME280;25402;42.004;23.088;2023-07-31T03:09:57;96977.72;;;17.92;51.78
39729;BME280;25402;42.004;23.088;2023-07-31T03:12:24;96980.94;;;17.89;51.69
39729;BME280;25402;42.004;23.088;2023-07-31T03:14:51;96960.31;;;17.70;51.71
39729;BME280;25402;42.004;23.088;2023-07-31T03:17:20;96970.03;;;17.78;51.90
39729;BME280;25402;42.004;23.088;2023-07-31T03:19:47;96970.75;;;17.73;51.97
39729;BME280;25402;42.004;23.088;2023-07-31T03:22:14;96964.84;;;17.64;52.69
39729;BME280;25402;42.004;23.088;2023-07-31T03:24:41;96978.59;;;17.53;52.83
39729;BME280;25402;42.004;23.088;2023-07-31T03:27:10;96985.72;;;17.54;52.40
39729;BME280;25402;42.004;23.088;2023-07-31T03:29:37;96979.56;;;17.47;52.62
39729;BME280;25402;42.004;23.088;2023-07-31T03:32:04;96980.53;;;17.41;52.73
39729;BME280;25402;42.004;23.088;2023-07-31T03:34:31;97000.47;;;17.53;52.63
39729;BME280;25402;42.004;23.088;2023-07-31T03:36:59;97007.09;;;17.57;52.22
39729;BME280;25402;42.004;23.088;2023-07-31T03:39:26;97010.09;;;17.55;52.38
39729;BME280;25402;42.004;23.088;2023-07-31T03:41:53;97013.88;;;17.54;52.33
39729;BME280;25402;42.004;23.088;2023-07-31T03:44:21;97004.97;;;17.59;52.31
39729;BME280;25402;42.004;23.088;2023-07-31T03:46:48;97006.16;;;17.63;52.37
39729;BME280;25402;42.004;23.088;2023-07-31T03:49:15;97001.63;;;17.57;52.74
39729;BME280;25402;42.004;23.088;2023-07-31T03:51:42;97001.22;;;17.65;52.53
39729;BME280;25402;42.004;23.088;2023-07-31T03:54:10;96998.50;;;17.65;52.43
39729;BME280;25402;42.004;23.088;2023-07-31T03:56:36;97008.13;;;17.67;52.29
39729;BME280;25402;42.004;23.088;2023-07-31T03:59:04;96998.84;;;17.68;52.59
39729;BME280;25402;42.004;23.088;2023-07-31T04:01:32;97025.81;;;18.05;53.23
39729;BME280;25402;42.004;23.088;2023-07-31T04:03:59;97025.03;;;18.38;52.96
39729;BME280;25402;42.004;23.088;2023-07-31T04:06:26;97028.41;;;18.95;50.68
39729;BME280;25402;42.004;23.088;2023-07-31T04:08:53;97030.13;;;19.18;50.26
39729;BME280;25402;42.004;23.088;2023-07-31T04:11:20;97018.00;;;19.58;48.74
39729;BME280;25402;42.004;23.088;2023-07-31T04:13:47;97027.00;;;20.02;48.41
39729;BME280;25402;42.004;23.088;2023-07-31T04:16:14;97024.38;;;20.12;47.82
39729;BME280;25402;42.004;23.088;2023-07-31T04:18:42;97038.38;;;20.16;47.52
39729;BME280;25402;42.004;23.088;2023-07-31T04:21:09;97034.19;;;20.30;48.02
39729;BME280;25402;42.004;23.088;2023-07-31T04:23:40;97019.88;;;20.60;46.32
39729;BME280;25402;42.004;23.088;2023-07-31T04:26:07;97039.50;;;21.15;44.98
39729;BME280;25402;42.004;23.088;2023-07-31T04:28:34;97029.00;;;21.55;44.88
39729;BME280;25402;42.004;23.088;2023-07-31T04:31:01;97036.78;;;21.88;44.08
39729;BME280;25402;42.004;23.088;2023-07-31T04:33:27;97018.88;;;21.80;42.89
39729;BME280;25402;42.004;23.088;2023-07-31T04:35:57;97038.00;;;22.12;43.54
39729;BME280;25402;42.004;23.088;2023-07-31T04:38:24;97040.75;;;22.38;43.02
39729;BME280;25402;42.004;23.088;2023-07-31T04:40:51;97038.28;;;22.26;42.16
39729;BME280;25402;42.004;23.088;2023-07-31T04:43:18;97037.19;;;22.37;42.09
39729;BME280;25402;42.004;23.088;2023-07-31T04:45:45;97040.28;;;22.66;41.78
39729;BME280;25402;42.004;23.088;2023-07-31T04:48:13;97038.84;;;22.89;41.53
39729;BME280;25402;42.004;23.088;2023-07-31T04:50:40;97040.22;;;23.12;41.29
39729;BME280;25402;42.004;23.088;2023-07-31T04:53:09;97039.00;;;23.48;40.75
39729;BME280;25402;42.004;23.088;2023-07-31T04:55:36;97039.44;;;23.86;39.66
39729;BME280;25402;42.004;23.088;2023-07-31T04:58:03;97026.38;;;23.97;38.93
39729;BME280;25402;42.004;23.088;2023-07-31T05:00:30;97029.84;;;24.17;33.68
39729;BME280;25402;42.004;23.088;2023-07-31T05:02:59;97025.53;;;24.01;37.75
39729;BME280;25402;42.004;23.088;2023-07-31T05:05:26;97025.78;;;24.49;37.46
39729;BME280;25402;42.004;23.088;2023-07-31T05:07:57;97039.88;;;24.86;35.80
39729;BME280;25402;42.004;23.088;2023-07-31T05:10:26;97018.56;;;24.87;36.22
39729;BME280;25402;42.004;23.088;2023-07-31T05:12:53;97024.59;;;25.47;35.40
39729;BME280;25402;42.004;23.088;2023-07-31T05:15:20;97006.47;;;25.54;34.23
39729;BME280;25402;42.004;23.088;2023-07-31T05:17:47;97037.47;;;26.42;33.74
39729;BME280;25402;42.004;23.088;2023-07-31T05:20:14;97049.41;;;26.75;33.89
39729;BME280;25402;42.004;23.088;2023-07-31T05:22:45;97040.34;;;26.69;32.20
39729;BME280;25402;42.004;23.088;2023-07-31T05:25:12;97042.53;;;27.05;31.80
39729;BME280;25402;42.004;23.088;2023-07-31T05:27:42;97014.41;;;26.92;29.95
39729;BME280;25402;42.004;23.088;2023-07-31T05:30:09;97042.53;;;27.18;32.63
39729;BME280;25402;42.004;23.088;2023-07-31T05:32:39;97036.63;;;27.52;29.65
39729;BME280;25402;42.004;23.088;2023-07-31T05:35:07;97027.78;;;27.50;30.25
39729;BME280;25402;42.004;23.088;2023-07-31T05:37:34;97033.53;;;27.67;31.37
39729;BME280;25402;42.004;23.088;2023-07-31T05:40:02;97029.34;;;27.84;30.47
39729;BME280;25402;42.004;23.088;2023-07-31T05:42:32;97019.22;;;28.01;30.56
39729;BME280;25402;42.004;23.088;2023-07-31T05:45:03;97028.53;;;28.33;30.22
39729;BME280;25402;42.004;23.088;2023-07-31T05:47:31;97019.47;;;28.27;30.45
39729;BME280;25402;42.004;23.088;2023-07-31T05:49:58;97033.44;;;28.00;30.16
39729;BME280;25402;42.004;23.088;2023-07-31T05:52:27;97023.19;;;28.09;30.36
39729;BME280;25402;42.004;23.088;2023-07-31T05:54:58;97027.28;;;27.76;30.60
39729;BME280;25402;42.004;23.088;2023-07-31T05:57:25;97021.00;;;27.84;30.49
39729;BME280;25402;42.004;23.088;2023-07-31T05:59:52;97000.94;;;27.46;31.05
39729;BME280;25402;42.004;23.088;2023-07-31T06:02:21;97006.78;;;27.44;31.04
39729;BME280;25402;42.004;23.088;2023-07-31T06:04:49;97021.19;;;27.46;30.20
39729;BME280;25402;42.004;23.088;2023-07-31T06:07:17;97011.53;;;27.44;30.37
39729;BME280;25402;42.004;23.088;2023-07-31T06:09:44;97022.84;;;27.61;30.17
39729;BME280;25402;42.004;23.088;2023-07-31T06:12:12;96997.91;;;27.15;31.23
39729;BME280;25402;42.004;23.088;2023-07-31T06:14:40;97016.94;;;27.21;29.88
39729;BME280;25402;42.004;23.088;2023-07-31T06:17:07;97022.25;;;27.37;30.23
39729;BME280;25402;42.004;23.088;2023-07-31T06:19:35;97022.16;;;27.09;nan
39729;BME280;25402;42.004;23.088;2023-07-31T06:22:02;97014.09;;;26.80;30.69
39729;BME280;25402;42.004;23.088;2023-07-31T06:24:29;96993.91;;;26.75;30.88
39729;BME280;25402;42.004;23.088;2023-07-31T06:26:56;97004.25;;;26.88;30.81
39729;BME280;25402;42.004;23.088;2023-07-31T06:29:24;96997.06;;;26.87;30.72
39729;BME280;25402;42.004;23.088;2023-07-31T06:31:52;96986.84;;;26.50;30.68
39729;BME280;25402;42.004;23.088;2023-07-31T06:34:22;96984.69;;;26.09;30.87
39729;BME280;25402;42.004;23.088;2023-07-31T06:36:50;97012.19;;;26.06;30.78
39729;BME280;25402;42.004;23.088;2023-07-31T06:39:19;97014.50;;;25.80;30.92
39729;BME280;25402;42.004;23.088;2023-07-31T06:41:46;97005.44;;;25.21;31.96
39729;BME280;25402;42.004;23.088;2023-07-31T06:44:14;97009.44;;;25.63;32.01
39729;BME280;25402;42.004;23.088;2023-07-31T06:46:40;96959.25;;;25.46;31.43
39729;BME280;25402;42.004;23.088;2023-07-31T06:49:07;96993.53;;;25.50;31.35
39729;BME280;25402;42.004;23.088;2023-07-31T06:51:34;97008.16;;;25.32;31.86
39729;BME280;25402;42.004;23.088;2023-07-31T06:54:05;97006.97;;;24.85;32.13
39729;BME280;25402;42.004;23.088;2023-07-31T06:56:32;97002.00;;;24.82;32.07
39729;BME280;25402;42.004;23.088;2023-07-31T06:59:00;97005.47;;;24.64;32.43
39729;BME280;25402;42.004;23.088;2023-07-31T07:01:27;96966.59;;;24.50;32.42
39729;BME280;25402;42.004;23.088;2023-07-31T07:03:54;96982.00;;;24.56;32.72
39729;BME280;25402;42.004;23.088;2023-07-31T07:06:23;96998.56;;;24.95;32.51
39729;BME280;25402;42.004;23.088;2023-07-31T07:08:50;96988.09;;;24.58;32.85
39729;BME280;25402;42.004;23.088;2023-07-31T07:11:19;97011.81;;;24.98;32.61
39729;BME280;25402;42.004;23.088;2023-07-31T07:13:48;96985.56;;;24.28;33.08
39729;BME280;25402;42.004;23.088;2023-07-31T07:16:15;96997.44;;;24.33;33.46
39729;BME280;25402;42.004;23.088;2023-07-31T07:18:42;97020.25;;;24.49;33.12
39729;BME280;25402;42.004;23.088;2023-07-31T07:21:09;97018.19;;;24.31;33.20
39729;BME280;25402;42.004;23.088;2023-07-31T07:23:40;96966.84;;;24.19;32.98
39729;BME280;25402;42.004;23.088;2023-07-31T07:26:07;97001.94;;;24.24;33.71
39729;BME280;25402;42.004;23.088;2023-07-31T07:28:36;96978.50;;;24.11;33.33
39729;BME280;25402;42.004;23.088;2023-07-31T07:31:03;97005.41;;;24.40;33.26
39729;BME280;25402;42.004;23.088;2023-07-31T07:38:35;97021.19;;;24.68;32.94
39729;BME280;25402;42.004;23.088;2023-07-31T07:41:04;97016.78;;;24.67;32.72
39729;BME280;25402;42.004;23.088;2023-07-31T07:43:31;97026.34;;;24.85;32.24
39729;BME280;25402;42.004;23.088;2023-07-31T07:46:00;97020.25;;;24.83;32.53
39729;BME280;25402;42.004;23.088;2023-07-31T07:48:27;97014.88;;;24.97;32.17
39729;BME280;25402;42.004;23.088;2023-07-31T07:50:54;97023.44;;;24.95;32.50
39729;BME280;25402;42.004;23.088;2023-07-31T07:53:21;97030.34;;;24.98;31.95
39729;BME280;25402;42.004;23.088;2023-07-31T07:55:49;97023.28;;;25.10;31.98
39729;BME280;25402;42.004;23.088;2023-07-31T07:58:19;97031.06;;;24.74;32.18
39729;BME280;25402;42.004;23.088;2023-07-31T08:00:50;97033.22;;;24.53;32.59
39729;BME280;25402;42.004;23.088;2023-07-31T08:03:20;97019.94;;;24.55;31.82
39729;BME280;25402;42.004;23.088;2023-07-31T08:05:48;97028.72;;;24.57;32.34
39729;BME280;25402;42.004;23.088;2023-07-31T08:08:15;97013.72;;;24.35;32.51
39729;BME280;25402;42.004;23.088;2023-07-31T08:10:43;96995.16;;;23.96;32.32
39729;BME280;25402;42.004;23.088;2023-07-31T08:13:11;97004.50;;;24.49;31.67
39729;BME280;25402;42.004;23.088;2023-07-31T08:15:41;96994.09;;;24.36;32.41
39729;BME280;25402;42.004;23.088;2023-07-31T08:18:08;96979.91;;;24.48;32.06
39729;BME280;25402;42.004;23.088;2023-07-31T08:20:36;97011.69;;;24.84;31.26
39729;BME280;25402;42.004;23.088;2023-07-31T08:23:03;96991.53;;;24.79;30.78
39729;BME280;25402;42.004;23.088;2023-07-31T08:25:34;96996.63;;;24.95;31.12
39729;BME280;25402;42.004;23.088;2023-07-31T08:28:01;96952.63;;;24.65;30.43
39729;BME280;25402;42.004;23.088;2023-07-31T08:30:30;97010.28;;;24.53;30.50
39729;BME280;25402;42.004;23.088;2023-07-31T08:32:59;97014.22;;;24.76;30.62
39729;BME280;25402;42.004;23.088;2023-07-31T08:35:26;96995.19;;;24.69;30.47
39729;BME280;25402;42.004;23.088;2023-07-31T08:37:56;97013.06;;;25.11;30.46
39729;BME280;25402;42.004;23.088;2023-07-31T08:40:23;97013.13;;;24.77;29.76
39729;BME280;25402;42.004;23.088;2023-07-31T08:42:53;97008.91;;;24.84;30.19
39729;BME280;25402;42.004;23.088;2023-07-31T08:45:23;96987.19;;;24.34;30.77
39729;BME280;25402;42.004;23.088;2023-07-31T08:47:51;96991.19;;;24.85;30.29
39729;BME280;25402;42.004;23.088;2023-07-31T08:50:19;96982.41;;;24.78;29.72
39729;BME280;25402;42.004;23.088;2023-07-31T08:52:48;97007.09;;;24.99;30.04
39729;BME280;25402;42.004;23.088;2023-07-31T08:55:17;97000.38;;;25.05;29.15
39729;BME280;25402;42.004;23.088;2023-07-31T08:57:51;96980.13;;;24.85;29.21
39729;BME280;25402;42.004;23.088;2023-07-31T09:00:19;96993.94;;;25.14;29.27
39729;BME280;25402;42.004;23.088;2023-07-31T09:02:56;96986.66;;;24.94;28.68
39729;BME280;25402;42.004;23.088;2023-07-31T09:05:27;96985.50;;;25.01;29.31
39729;BME280;25402;42.004;23.088;2023-07-31T09:08:00;96995.22;;;25.22;29.23
39729;BME280;25402;42.004;23.088;2023-07-31T09:10:30;96993.00;;;25.48;29.08
39729;BME280;25402;42.004;23.088;2023-07-31T09:12:58;96980.38;;;25.60;28.76
39729;BME280;25402;42.004;23.088;2023-07-31T09:15:27;96979.31;;;25.80;28.31
39729;BME280;25402;42.004;23.088;2023-07-31T09:17:59;97000.28;;;25.62;28.51
39729;BME280;25402;42.004;23.088;2023-07-31T09:20:27;96963.81;;;25.55;28.53
39729;BME280;25402;42.004;23.088;2023-07-31T09:22:55;96976.00;;;25.54;28.46
39729;BME280;25402;42.004;23.088;2023-07-31T09:25:23;96987.00;;;25.83;28.14
39729;BME280;25402;42.004;23.088;2023-07-31T09:27:53;96981.00;;;25.76;27.78
39729;BME280;25402;42.004;23.088;2023-07-31T09:30:21;97000.66;;;25.80;27.67
39729;BME280;25402;42.004;23.088;2023-07-31T09:33:00;96981.56;;;25.78;27.95
39729;BME280;25402;42.004;23.088;2023-07-31T09:35:30;96974.63;;;25.76;28.02
39729;BME280;25402;42.004;23.088;2023-07-31T09:38:00;96969.91;;;26.14;27.46
39729;BME280;25402;42.004;23.088;2023-07-31T09:40:31;96962.53;;;26.09;27.17
39729;BME280;25402;42.004;23.088;2023-07-31T09:43:00;96970.84;;;26.09;27.48
39729;BME280;25402;42.004;23.088;2023-07-31T09:45:28;96959.78;;;26.28;27.40
39729;BME280;25402;42.004;23.088;2023-07-31T09:47:56;96961.81;;;26.55;27.04
39729;BME280;25402;42.004;23.088;2023-07-31T09:50:24;96975.25;;;26.29;27.22
39729;BME280;25402;42.004;23.088;2023-07-31T09:52:51;96937.59;;;25.90;27.11
39729;BME280;25402;42.004;23.088;2023-07-31T09:55:19;96943.56;;;26.16;26.63
39729;BME280;25402;42.004;23.088;2023-07-31T09:57:49;96958.09;;;26.08;26.73
39729;BME280;25402;42.004;23.088;2023-07-31T10:00:19;96951.81;;;26.03;26.12
39729;BME280;25402;42.004;23.088;2023-07-31T10:02:51;96960.28;;;25.92;26.30
39729;BME280;25402;42.004;23.088;2023-07-31T10:05:19;96939.06;;;25.83;26.77
39729;BME280;25402;42.004;23.088;2023-07-31T10:07:52;96925.91;;;25.93;27.34
39729;BME280;25402;42.004;23.088;2023-07-31T10:10:20;96940.72;;;26.21;27.45
39729;BME280;25402;42.004;23.088;2023-07-31T10:12:48;96931.75;;;25.92;26.95
39729;BME280;25402;42.004;23.088;2023-07-31T10:15:18;96930.81;;;26.15;26.90
39729;BME280;25402;42.004;23.088;2023-07-31T10:17:47;96944.25;;;25.89;27.11
39729;BME280;25402;42.004;23.088;2023-07-31T10:20:15;96933.75;;;26.43;27.21
39729;BME280;25402;42.004;23.088;2023-07-31T10:22:45;96929.41;;;26.18;26.80
39729;BME280;25402;42.004;23.088;2023-07-31T10:25:13;96921.44;;;26.30;26.59
39729;BME280;25402;42.004;23.088;2023-07-31T10:27:41;96908.81;;;26.70;25.36
39729;BME280;25402;42.004;23.088;2023-07-31T10:30:11;96915.94;;;26.11;25.85
39729;BME280;25402;42.004;23.088;2023-07-31T10:32:43;96922.78;;;26.65;25.04
39729;BME280;25402;42.004;23.088;2023-07-31T10:35:11;96938.78;;;26.54;25.27
39729;BME280;25402;42.004;23.088;2023-07-31T10:37:40;96918.88;;;26.66;25.62
39729;BME280;25402;42.004;23.088;2023-07-31T10:40:11;96923.84;;;26.37;26.05
39729;BME280;25402;42.004;23.088;2023-07-31T10:42:47;96920.06;;;26.92;25.37
39729;BME280;25402;42.004;23.088;2023-07-31T10:45:24;96925.72;;;27.01;25.05
39729;BME280;25402;42.004;23.088;2023-07-31T10:47:58;96904.69;;;26.67;25.43
39729;BME280;25402;42.004;23.088;2023-07-31T10:50:26;96905.88;;;26.94;25.14
39729;BME280;25402;42.004;23.088;2023-07-31T10:52:54;96909.16;;;26.36;25.34
39729;BME280;25402;42.004;23.088;2023-07-31T10:55:30;96897.81;;;26.65;24.76
39729;BME280;25402;42.004;23.088;2023-07-31T10:58:05;96909.69;;;26.84;24.67
39729;BME280;25402;42.004;23.088;2023-07-31T11:00:33;96907.13;;;26.88;24.60
39729;BME280;25402;42.004;23.088;2023-07-31T11:03:04;96892.16;;;26.56;24.58
39729;BME280;25402;42.004;23.088;2023-07-31T11:05:49;96891.84;;;26.58;24.82
39729;BME280;25402;42.004;23.088;2023-07-31T11:08:18;96903.72;;;26.77;24.41
39729;BME280;25402;42.004;23.088;2023-07-31T11:10:48;96898.59;;;26.84;23.75
39729;BME280;25402;42.004;23.088;2023-07-31T11:13:16;96873.06;;;27.23;23.05
39729;BME280;25402;42.004;23.088;2023-07-31T11:15:43;96870.53;;;26.99;23.47
39729;BME280;25402;42.004;23.088;2023-07-31T11:18:11;96885.63;;;27.48;23.52
39729;BME280;25402;42.004;23.088;2023-07-31T11:20:39;96844.88;;;27.44;22.67
39729;BME280;25402;42.004;23.088;2023-07-31T11:23:08;96871.44;;;27.86;22.50
39729;BME280;25402;42.004;23.088;2023-07-31T11:25:37;96875.47;;;27.30;23.05
39729;BME280;25402;42.004;23.088;2023-07-31T11:28:07;96879.56;;;27.32;22.35
39729;BME280;25402;42.004;23.088;2023-07-31T11:30:34;96869.91;;;27.80;22.26
39729;BME280;25402;42.004;23.088;2023-07-31T11:33:03;96857.78;;;27.76;22.35
39729;BME280;25402;42.004;23.088;2023-07-31T11:35:34;96870.72;;;27.80;22.88
39729;BME280;25402;42.004;23.088;2023-07-31T11:38:02;96863.97;;;27.95;22.95
39729;BME280;25402;42.004;23.088;2023-07-31T11:40:29;96865.38;;;27.84;22.88
39729;BME280;25402;42.004;23.088;2023-07-31T11:42:57;96863.53;;;27.29;23.34
39729;BME280;25402;42.004;23.088;2023-07-31T11:45:34;96875.06;;;27.37;22.69
39729;BME280;25402;42.004;23.088;2023-07-31T11:48:08;96880.56;;;27.50;22.51
39729;BME280;25402;42.004;23.088;2023-07-31T11:50:50;96866.44;;;27.60;22.43
39729;BME280;25402;42.004;23.088;2023-07-31T11:53:37;96867.81;;;27.49;22.06
39729;BME280;25402;42.004;23.088;2023-07-31T11:56:12;96860.31;;;27.86;21.69
39729;BME280;25402;42.004;23.088;2023-07-31T11:58:45;96856.66;;;27.99;21.18
39729;BME280;25402;42.004;23.088;2023-07-31T12:01:18;96847.91;;;28.36;21.28
39729;BME280;25402;42.004;23.088;2023-07-31T12:03:47;96849.22;;;28.61;21.52
39729;BME280;25402;42.004;23.088;2023-07-31T12:06:32;96843.19;;;29.07;20.79
39729;BME280;25402;42.004;23.088;2023-07-31T12:09:02;96855.09;;;28.60;21.26
39729;BME280;25402;42.004;23.088;2023-07-31T12:11:42;96848.47;;;28.47;21.39
39729;BME280;25402;42.004;23.088;2023-07-31T12:14:23;96851.91;;;28.75;20.61
39729;BME280;25402;42.004;23.088;2023-07-31T12:16:55;96831.53;;;28.66;20.52
39729;BME280;25402;42.004;23.088;2023-07-31T12:19:22;96840.66;;;28.80;20.79
39729;BME280;25402;42.004;23.088;2023-07-31T12:21:51;96830.28;;;29.29;20.22
39729;BME280;25402;42.004;23.088;2023-07-31T12:24:18;96832.91;;;29.17;19.82
39729;BME280;25402;42.004;23.088;2023-07-31T12:26:47;96844.63;;;29.05;19.88
39729;BME280;25402;42.004;23.088;2023-07-31T12:29:15;96820.41;;;29.05;19.51
39729;BME280;25402;42.004;23.088;2023-07-31T12:31:44;96796.97;;;29.06;19.81
39729;BME280;25402;42.004;23.088;2023-07-31T12:34:18;96815.94;;;29.70;19.48
39729;BME280;25402;42.004;23.088;2023-07-31T12:36:46;96815.22;;;29.30;19.65
39729;BME280;25402;42.004;23.088;2023-07-31T12:39:16;96821.94;;;29.29;19.71
39729;BME280;25402;42.004;23.088;2023-07-31T12:41:43;96813.44;;;29.34;19.67
39729;BME280;25402;42.004;23.088;2023-07-31T12:44:10;96797.81;;;29.07;20.05
39729;BME280;25402;42.004;23.088;2023-07-31T12:46:37;96781.63;;;29.18;19.44
39729;BME280;25402;42.004;23.088;2023-07-31T12:49:04;96803.59;;;29.36;19.57
39729;BME280;25402;42.004;23.088;2023-07-31T12:51:31;96795.72;;;29.30;19.58
39729;BME280;25402;42.004;23.088;2023-07-31T12:53:58;96795.44;;;29.57;19.18
39729;BME280;25402;42.004;23.088;2023-07-31T12:56:26;96790.31;;;29.33;19.40
39729;BME280;25402;42.004;23.088;2023-07-31T12:58:54;96776.13;;;28.87;19.60
39729;BME280;25402;42.004;23.088;2023-07-31T13:01:23;96785.94;;;28.76;19.97
39729;BME280;25402;42.004;23.088;2023-07-31T13:03:50;96795.47;;;28.92;19.79